createdAt,value
2018-10-21T00:01:07.249Z,18.15
2018-10-21T00:03:41.567Z,20.80
2018-10-21T00:06:12.679Z,20.40
2018-10-21T00:08:42.075Z,19.98
2018-10-21T00:11:11.395Z,20.15
2018-10-21T00:13:40.544Z,19.60
2018-10-21T00:16:10.558Z,20.40
2018-10-21T00:18:42.945Z,18.48
2018-10-21T00:24:22.252Z,18.17
2018-10-21T00:27:02.635Z,22.62
2018-10-21T00:30:01.205Z,21.12
2018-10-21T00:42:47.258Z,18.40
2018-10-21T00:45:34.909Z,24.20
2018-10-21T01:06:52.018Z,22.02
2018-10-21T01:09:22.131Z,21.85
2018-10-21T01:11:51.124Z,17.80
2018-10-21T01:14:20.445Z,19.05
2018-10-21T01:16:49.766Z,19.80
2018-10-21T01:19:19.515Z,18.98
2018-10-21T01:21:48.205Z,18.60
2018-10-21T01:24:16.547Z,20.57
2018-10-21T01:26:44.913Z,16.75
2018-10-21T01:32:43.108Z,17.00
2018-10-21T01:49:31.298Z,13.35
2018-10-21T01:52:02.435Z,16.75
2018-10-21T01:54:32.122Z,18.12
2018-10-21T02:03:11.384Z,15.85
2018-10-21T02:30:15.740Z,19.12
2018-10-21T02:35:37.072Z,21.65
2018-10-21T02:41:55.263Z,21.77
2018-10-21T02:44:25.135Z,23.55
2018-10-21T02:46:58.873Z,16.85
2018-10-21T02:49:35.284Z,19.10
2018-10-21T02:52:17.451Z,18.80
2018-10-21T02:55:02.138Z,20.12
2018-10-21T03:10:37.989Z,19.62
2018-10-21T03:13:06.726Z,17.20
2018-10-21T03:18:13.633Z,20.27
2018-10-21T03:20:42.479Z,22.30
2018-10-21T03:23:11.317Z,21.02
2018-10-21T03:25:40.211Z,21.85
2018-10-21T03:28:14.887Z,25.62
2018-10-21T03:30:44.123Z,25.05
2018-10-21T03:33:12.794Z,21.77
2018-10-21T03:35:42.072Z,27.35
2018-10-21T03:38:11.871Z,25.08
2018-10-21T03:40:43.321Z,23.67
2018-10-21T03:54:07.478Z,28.42
2018-10-21T03:56:52.285Z,27.20
2018-10-21T03:59:27.040Z,23.40
2018-10-21T04:02:02.613Z,25.40
2018-10-21T04:04:35.935Z,36.08
2018-10-21T04:10:16.842Z,35.08
2018-10-21T04:12:45.310Z,28.07
2018-10-21T04:15:33.745Z,29.40
2018-10-21T06:05:20.213Z,23.30
2018-10-21T06:18:28.960Z,27.52
2018-10-21T06:21:01.659Z,29.85
2018-10-21T06:23:33.190Z,22.95
2018-10-21T06:26:02.130Z,22.30
2018-10-21T06:36:12.198Z,25.72
2018-10-21T06:38:41.704Z,21.52
2018-10-21T06:41:10.536Z,22.85
2018-10-21T06:50:24.333Z,20.88
2018-10-21T06:52:53.778Z,25.12
2018-10-21T06:55:26.937Z,31.37
2018-10-21T06:57:55.488Z,30.80
2018-10-21T07:00:25.012Z,29.00
2018-10-21T07:03:01.291Z,27.35
2018-10-21T07:05:48.733Z,25.90
2018-10-21T07:08:17.081Z,33.67
2018-10-21T07:10:45.361Z,28.83
2018-10-21T07:13:13.689Z,30.05
2018-10-21T07:15:42.054Z,28.73
2018-10-21T07:18:10.291Z,32.40
2018-10-21T07:20:38.525Z,31.50
2018-10-21T07:23:06.707Z,29.57
2018-10-21T07:25:35.140Z,30.25
2018-10-21T07:28:03.579Z,34.75
2018-10-21T07:30:32.777Z,27.35
2018-10-21T07:33:01.723Z,30.50
2018-10-21T07:35:30.501Z,30.43
2018-10-21T07:37:58.912Z,38.95
2018-10-21T07:40:27.155Z,45.30
2018-10-21T07:42:55.548Z,37.25
2018-10-21T07:45:23.825Z,34.43
2018-10-21T07:47:52.054Z,40.38
2018-10-21T07:50:20.272Z,52.90
2018-10-21T07:52:48.729Z,39.65
2018-10-21T07:55:18.306Z,29.70
2018-10-21T07:57:47.754Z,31.15
2018-10-21T08:00:16.590Z,32.65
2018-10-21T08:02:44.940Z,31.23
2018-10-21T08:05:25.103Z,29.85
2018-10-21T08:08:05.321Z,32.70
2018-10-21T08:10:35.384Z,36.80
2018-10-21T08:13:04.057Z,32.53
2018-10-21T08:15:32.345Z,32.10
2018-10-21T08:18:01.369Z,35.15
2018-10-21T08:20:29.820Z,54.70
2018-10-21T08:22:58.078Z,71.17
2018-10-21T08:25:26.681Z,67.80
2018-10-21T08:27:54.966Z,60.52
2018-10-21T08:30:23.409Z,69.22
2018-10-21T08:32:51.733Z,68.52
2018-10-21T08:35:20.424Z,69.85
2018-10-21T08:37:48.671Z,72.53
2018-10-21T08:40:16.895Z,71.57
2018-10-21T08:42:44.991Z,62.15
2018-10-21T08:45:13.535Z,64.30
2018-10-21T08:47:42.045Z,62.80
2018-10-21T08:50:10.977Z,67.90
2018-10-21T08:52:39.249Z,65.52
2018-10-21T08:55:08.087Z,64.55
2018-10-21T08:57:36.223Z,70.35
2018-10-21T09:00:05.032Z,68.45
2018-10-21T09:02:33.284Z,67.85
2018-10-21T09:05:01.676Z,53.48
2018-10-21T09:07:30.029Z,61.00
2018-10-21T09:09:58.372Z,62.43
2018-10-21T09:12:26.901Z,63.48
2018-10-21T09:14:55.152Z,64.65
2018-10-21T09:17:23.475Z,66.37
2018-10-21T09:19:51.661Z,56.88
2018-10-21T09:22:19.972Z,75.70
2018-10-21T09:24:48.240Z,60.83
2018-10-21T09:27:16.607Z,62.50
2018-10-21T09:29:44.872Z,57.20
2018-10-21T09:32:13.124Z,66.20
2018-10-21T09:34:41.471Z,71.10
2018-10-21T09:37:09.998Z,63.58
2018-10-21T09:39:38.156Z,63.87
2018-10-21T09:42:06.379Z,63.87
2018-10-21T09:44:35.034Z,63.38
2018-10-21T09:47:03.342Z,57.93
2018-10-21T09:49:31.594Z,58.75
2018-10-21T09:51:59.930Z,62.13
2018-10-21T09:54:28.186Z,63.85
2018-10-21T09:56:56.481Z,53.85
2018-10-21T09:59:24.734Z,57.45
2018-10-21T10:01:58.461Z,68.25
2018-10-21T10:04:26.716Z,54.55
2018-10-21T10:06:54.953Z,58.08
2018-10-21T10:09:23.113Z,59.03
2018-10-21T10:11:51.301Z,60.35
2018-10-21T10:14:19.520Z,55.15
2018-10-21T10:16:47.981Z,50.40
2018-10-21T10:19:16.637Z,62.30
2018-10-21T10:21:44.727Z,55.12
2018-10-21T10:24:12.885Z,54.70
2018-10-21T10:26:41.395Z,53.30
2018-10-21T10:29:09.560Z,55.78
2018-10-21T10:31:37.768Z,53.30
2018-10-21T10:34:06.100Z,55.30
2018-10-21T10:36:34.224Z,58.13
2018-10-21T10:39:02.380Z,49.73
2018-10-21T10:41:30.570Z,52.67
2018-10-21T10:44:00.422Z,47.88
2018-10-21T10:46:29.034Z,50.55
2018-10-21T10:49:01.245Z,55.50
2018-10-21T10:51:30.480Z,47.35
2018-10-21T10:53:59.274Z,41.18
2018-10-21T10:56:27.733Z,52.35
2018-10-21T10:58:56.248Z,51.33
2018-10-21T11:01:24.764Z,46.35
2018-10-21T11:03:53.280Z,51.75
2018-10-21T11:06:23.346Z,46.20
2018-10-21T11:08:53.796Z,48.55
2018-10-21T11:11:22.222Z,53.52
2018-10-21T11:13:51.624Z,50.12
2018-10-21T11:16:19.950Z,52.67
2018-10-21T11:18:50.545Z,49.48
2018-10-21T11:21:18.998Z,45.40
2018-10-21T11:23:47.334Z,50.40
2018-10-21T11:26:15.616Z,44.23
2018-10-21T11:28:43.979Z,48.28
2018-10-21T11:31:12.319Z,44.35
2018-10-21T11:33:40.683Z,46.80
2018-10-21T11:36:09.012Z,43.13
2018-10-21T11:38:37.349Z,45.83
2018-10-21T11:41:06.076Z,47.93
2018-10-21T11:43:34.341Z,40.00
2018-10-21T11:46:02.728Z,44.80
2018-10-21T11:48:31.035Z,42.98
2018-10-21T11:50:59.929Z,46.28
2018-10-21T11:53:28.454Z,43.85
2018-10-21T11:55:56.701Z,45.85
2018-10-21T11:58:25.041Z,46.02
2018-10-21T12:00:53.261Z,46.58
2018-10-21T12:03:21.778Z,44.50
2018-10-21T12:05:50.066Z,44.67
2018-10-21T12:08:18.446Z,42.10
2018-10-21T12:10:46.900Z,42.73
2018-10-21T12:13:15.273Z,44.77
2018-10-21T12:15:43.404Z,44.70
2018-10-21T12:18:11.641Z,41.28
2018-10-21T12:20:41.624Z,43.98
2018-10-21T12:23:09.954Z,41.88
2018-10-21T12:25:38.183Z,45.38
2018-10-21T12:28:06.695Z,38.08
2018-10-21T12:30:34.900Z,40.28
2018-10-21T12:33:03.297Z,40.15
2018-10-21T12:35:31.516Z,38.78
2018-10-21T12:37:59.959Z,35.08
2018-10-21T12:40:29.261Z,35.70
2018-10-21T12:42:57.609Z,33.78
2018-10-21T12:45:25.975Z,37.50
2018-10-21T12:47:54.282Z,33.75
2018-10-21T12:50:23.366Z,37.05
2018-10-21T12:52:52.525Z,37.78
2018-10-21T12:55:21.621Z,31.33
2018-10-21T12:57:50.009Z,28.55
2018-10-21T13:00:18.280Z,33.58
2018-10-21T13:02:46.876Z,27.67
2018-10-21T13:05:15.209Z,32.38
2018-10-21T13:07:43.478Z,25.85
2018-10-21T13:10:11.941Z,26.12
2018-10-21T13:12:40.310Z,26.50
2018-10-21T13:15:08.760Z,23.92
2018-10-21T13:17:37.040Z,22.05
2018-10-21T13:20:05.581Z,22.45
2018-10-21T13:22:33.908Z,19.95
2018-10-21T13:25:02.330Z,27.48
2018-10-21T13:27:30.814Z,23.25
2018-10-21T13:29:59.124Z,22.13
2018-10-21T13:32:27.416Z,22.17
2018-10-21T13:34:55.971Z,22.07
2018-10-21T13:37:24.834Z,28.07
2018-10-21T13:39:53.827Z,27.22
2018-10-21T13:42:22.821Z,26.90
2018-10-21T13:44:51.142Z,26.25
2018-10-21T13:47:19.525Z,24.82
2018-10-21T13:49:47.868Z,27.05
2018-10-21T13:52:16.239Z,23.67
2018-10-21T13:54:44.547Z,21.35
2018-10-21T13:57:13.075Z,22.40
2018-10-21T13:59:41.834Z,21.93
2018-10-21T14:02:10.210Z,23.22
2018-10-21T14:04:38.685Z,20.68
2018-10-21T14:07:07.086Z,21.27
2018-10-21T14:09:35.433Z,25.62
2018-10-21T14:12:03.771Z,24.87
2018-10-21T14:14:32.661Z,27.15
2018-10-21T14:17:01.243Z,24.07
2018-10-21T14:19:29.985Z,27.58
2018-10-21T14:21:58.968Z,24.70
2018-10-21T14:24:27.445Z,23.80
2018-10-21T14:26:55.687Z,25.68
2018-10-21T14:29:26.264Z,21.15
2018-10-21T14:48:13.458Z,23.62
2018-10-21T14:50:42.575Z,26.02
2018-10-21T14:53:15.416Z,22.50
2018-10-21T14:55:45.607Z,25.37
2018-10-21T14:58:15.151Z,23.12
2018-10-21T15:00:44.854Z,20.88
2018-10-21T15:03:14.770Z,22.58
2018-10-21T15:05:45.306Z,24.12
2018-10-21T15:08:14.320Z,24.60
2018-10-21T15:10:43.232Z,25.25
2018-10-21T15:13:16.018Z,22.58
2018-10-21T15:15:47.462Z,20.20
2018-10-21T15:18:25.962Z,22.98
2018-10-21T15:20:54.370Z,18.27
2018-10-21T15:23:22.740Z,23.35
2018-10-21T15:25:51.435Z,19.48
2018-10-21T15:28:19.948Z,20.57
2018-10-21T15:30:48.505Z,21.37
2018-10-21T15:33:16.768Z,18.60
2018-10-21T15:35:45.219Z,21.17
2018-10-21T15:38:14.014Z,16.37
2018-10-21T15:40:42.350Z,20.05
2018-10-21T15:43:11.155Z,17.95
2018-10-21T15:45:39.623Z,17.07
2018-10-21T15:48:07.982Z,16.75
2018-10-21T15:50:36.301Z,18.82
2018-10-21T15:53:04.551Z,17.10
2018-10-21T15:55:33.385Z,16.25
2018-10-21T15:58:01.737Z,16.10
2018-10-21T16:00:30.456Z,16.25
2018-10-21T16:02:58.991Z,17.35
2018-10-21T16:05:27.276Z,19.15
2018-10-21T16:07:56.237Z,21.05
2018-10-21T16:10:24.844Z,18.92
2018-10-21T16:12:53.758Z,18.75
2018-10-21T16:15:22.121Z,20.75
2018-10-21T16:17:50.486Z,22.17
2018-10-21T16:20:19.421Z,24.45
2018-10-21T16:22:47.595Z,21.75
2018-10-21T16:25:16.364Z,22.35
2018-10-21T16:27:44.772Z,18.07
2018-10-21T16:30:15.302Z,23.15
2018-10-21T16:32:45.410Z,22.98
2018-10-21T16:35:14.357Z,24.57
2018-10-21T16:37:42.825Z,29.32
2018-10-21T16:40:16.035Z,26.27
2018-10-21T16:42:44.699Z,22.70
2018-10-21T16:45:14.052Z,22.52
2018-10-21T16:47:42.412Z,28.73
2018-10-21T16:50:14.655Z,22.25
2018-10-21T16:52:44.181Z,25.43
2018-10-21T16:55:13.326Z,25.17
2018-10-21T16:57:42.118Z,26.62
2018-10-21T17:00:15.999Z,30.75
2018-10-21T17:02:44.142Z,30.82
2018-10-21T17:05:13.226Z,26.70
2018-10-21T17:07:41.824Z,27.17
2018-10-21T17:10:11.241Z,29.02
2018-10-21T17:12:39.452Z,32.67
2018-10-21T17:15:09.332Z,30.17
2018-10-21T17:17:38.434Z,27.85
2018-10-21T17:20:28.842Z,25.17
2018-10-21T17:25:58.315Z,31.07
2018-10-21T17:28:27.582Z,30.08
2018-10-21T17:30:56.845Z,31.15
2018-10-21T17:33:36.604Z,33.80
2018-10-21T17:38:47.434Z,30.62
2018-10-21T17:41:16.781Z,31.35
2018-10-21T17:43:47.202Z,33.75
2018-10-21T17:46:18.382Z,35.33
2018-10-21T18:04:18.136Z,29.92
2018-10-21T18:22:17.343Z,34.67
2018-10-21T18:43:36.955Z,29.63
2018-10-21T18:46:13.469Z,27.00
2018-10-21T18:48:44.969Z,27.82
2018-10-21T18:54:14.284Z,23.70
2018-10-21T18:56:47.744Z,27.15
2018-10-21T18:59:18.801Z,23.65
2018-10-21T19:05:35.767Z,21.65
2018-10-21T19:08:07.849Z,23.22
2018-10-21T19:10:37.110Z,21.93
2018-10-21T19:13:08.044Z,26.05
2018-10-21T19:15:37.249Z,23.55
2018-10-21T19:18:15.700Z,24.80
2018-10-21T19:20:48.277Z,26.07
2018-10-21T19:23:17.373Z,20.57
2018-10-21T19:25:54.997Z,23.45
2018-10-21T19:28:28.353Z,25.20
2018-10-21T19:30:58.278Z,21.82
2018-10-21T19:33:28.210Z,22.93
2018-10-21T19:38:37.600Z,22.95
2018-10-21T19:41:07.571Z,22.60
2018-10-21T19:43:38.650Z,21.35
2018-10-21T19:46:16.681Z,22.52
2018-10-21T19:49:00.356Z,20.45
2018-10-21T19:56:47.937Z,22.22
2018-10-21T19:59:18.789Z,22.58
2018-10-21T20:04:26.414Z,18.35
2018-10-21T20:07:06.931Z,20.35
2018-10-21T20:12:36.995Z,17.57
2018-10-21T20:15:17.517Z,15.55
2018-10-21T20:17:47.965Z,15.60
2018-10-21T20:20:17.745Z,17.73
2018-10-21T20:22:58.534Z,18.17
2018-10-21T20:26:36.448Z,17.67
2018-10-21T20:29:14.340Z,19.17
2018-10-21T20:31:55.520Z,18.50
2018-10-21T20:34:27.895Z,20.35
2018-10-21T20:36:58.037Z,19.57
2018-10-21T20:55:35.529Z,19.77
2018-10-21T20:58:07.896Z,17.57
2018-10-21T21:00:37.422Z,16.32
2018-10-21T21:05:46.926Z,19.12
2018-10-21T21:08:18.593Z,19.35
2018-10-21T21:13:26.599Z,18.60
2018-10-21T21:21:55.354Z,18.35
2018-10-21T21:30:06.998Z,20.60
2018-10-21T21:32:37.857Z,22.15
2018-10-21T21:35:07.402Z,21.80
2018-10-21T21:37:36.241Z,18.48
2018-10-21T21:40:06.478Z,22.80
2018-10-21T21:45:14.594Z,22.62
2018-10-21T21:47:45.695Z,21.12
2018-10-21T21:50:15.166Z,21.33
2018-10-21T21:52:44.645Z,22.20
2018-10-21T21:57:56.907Z,22.75
2018-10-21T22:00:26.878Z,23.95
2018-10-21T22:02:57.205Z,27.32
2018-10-21T22:05:26.534Z,23.12
2018-10-21T22:07:56.098Z,27.50
2018-10-21T22:10:26.519Z,27.22
2018-10-21T22:12:56.391Z,23.20
2018-10-21T22:15:28.497Z,25.52
2018-10-21T22:17:57.302Z,23.47
2018-10-21T22:20:26.407Z,27.30
2018-10-21T22:22:56.468Z,26.97
2018-10-21T22:25:25.347Z,26.20
2018-10-21T22:27:58.633Z,30.12
2018-10-21T22:30:27.398Z,29.10
2018-10-21T22:32:57.420Z,26.17
2018-10-21T22:35:26.427Z,32.93
2018-10-21T22:37:55.608Z,40.75
2018-10-21T22:40:26.936Z,29.57
2018-10-21T22:42:56.577Z,31.70
2018-10-21T22:45:25.773Z,32.33
2018-10-21T22:47:58.476Z,32.00
2018-10-21T22:50:26.933Z,29.85
2018-10-21T22:52:57.757Z,30.82
2018-10-21T22:55:27.190Z,36.33
2018-10-21T22:57:56.616Z,24.82
2018-10-21T23:00:28.372Z,24.75
2018-10-21T23:02:57.503Z,30.00
2018-10-21T23:05:26.392Z,28.47
2018-10-21T23:07:55.040Z,28.73
2018-10-21T23:10:24.833Z,30.37
2018-10-21T23:12:53.658Z,34.35
2018-10-21T23:15:22.872Z,26.75
2018-10-21T23:17:51.919Z,29.48
2018-10-21T23:20:20.203Z,29.92
2018-10-21T23:22:48.543Z,30.12
2018-10-21T23:25:16.963Z,43.50
2018-10-21T23:27:45.300Z,32.58
2018-10-21T23:30:13.838Z,30.82
2018-10-21T23:32:42.145Z,30.15
2018-10-21T23:35:10.454Z,29.07
2018-10-21T23:37:39.488Z,32.10
2018-10-21T23:40:09.118Z,30.52
2018-10-21T23:42:37.915Z,32.45
2018-10-21T23:45:06.943Z,34.55
2018-10-21T23:47:48.958Z,31.70
2018-10-21T23:50:17.762Z,30.32
2018-10-21T23:52:46.524Z,31.25
2018-10-21T23:55:15.897Z,36.55
2018-10-21T23:57:47.835Z,31.05
